sensor_id;sensor_type;location;lat;lon;timestamp;temperature;humidity
802;DHT22;383;48.766;9.270;2022-10-12T00:00:33;15.20;97.70
802;DHT22;383;48.766;9.270;2022-10-12T00:02:59;15.10;98.00
802;DHT22;383;48.766;9.270;2022-10-12T00:05:26;15.10;98.10
802;DHT22;383;48.766;9.270;2022-10-12T00:07:53;15.00;98.00
802;DHT22;383;48.766;9.270;2022-10-12T00:10:20;15.00;98.00
802;DHT22;383;48.766;9.270;2022-10-12T00:12:47;15.00;97.90
802;DHT22;383;48.766;9.270;2022-10-12T00:15:13;14.90;97.60
802;DHT22;383;48.766;9.270;2022-10-12T00:17:41;14.90;97.60
802;DHT22;383;48.766;9.270;2022-10-12T00:20:09;14.80;97.70
802;DHT22;383;48.766;9.270;2022-10-12T00:22:36;14.80;97.90
802;DHT22;383;48.766;9.270;2022-10-12T00:25:03;14.70;97.80
802;DHT22;383;48.766;9.270;2022-10-12T00:27:30;14.70;97.90
802;DHT22;383;48.766;9.270;2022-10-12T00:29:57;14.60;98.00
802;DHT22;383;48.766;9.270;2022-10-12T00:32:24;14.50;98.30
802;DHT22;383;48.766;9.270;2022-10-12T00:34:52;14.50;98.30
802;DHT22;383;48.766;9.270;2022-10-12T00:37:18;14.40;98.20
802;DHT22;383;48.766;9.270;2022-10-12T00:39:45;14.40;98.50
802;DHT22;383;48.766;9.270;2022-10-12T00:42:13;14.30;98.50
802;DHT22;383;48.766;9.270;2022-10-12T00:44:42;14.30;98.50
802;DHT22;383;48.766;9.270;2022-10-12T00:47:16;14.20;98.70
802;DHT22;383;48.766;9.270;2022-10-12T00:49:47;14.10;99.00
802;DHT22;383;48.766;9.270;2022-10-12T00:52:18;14.10;99.10
802;DHT22;383;48.766;9.270;2022-10-12T00:54:49;14.00;99.30
802;DHT22;383;48.766;9.270;2022-10-12T00:57:17;14.00;99.30
802;DHT22;383;48.766;9.270;2022-10-12T00:59:47;14.00;99.20
802;DHT22;383;48.766;9.270;2022-10-12T01:02:16;13.90;99.20
802;DHT22;383;48.766;9.270;2022-10-12T01:04:43;14.00;99.00
802;DHT22;383;48.766;9.270;2022-10-12T01:07:10;14.00;98.70
802;DHT22;383;48.766;9.270;2022-10-12T01:09:39;13.90;98.80
802;DHT22;383;48.766;9.270;2022-10-12T01:12:06;13.90;99.10
802;DHT22;383;48.766;9.270;2022-10-12T01:14:33;13.80;99.30
802;DHT22;383;48.766;9.270;2022-10-12T01:17:07;13.80;99.60
802;DHT22;383;48.766;9.270;2022-10-12T01:22:40;13.70;99.90
802;DHT22;383;48.766;9.270;2022-10-12T01:25:22;13.70;99.90
802;DHT22;383;48.766;9.270;2022-10-12T01:28:00;13.70;99.80
802;DHT22;383;48.766;9.270;2022-10-12T01:30:33;13.60;99.80
802;DHT22;383;48.766;9.270;2022-10-12T01:33:13;13.60;99.90
802;DHT22;383;48.766;9.270;2022-10-12T01:35:51;13.60;99.90
802;DHT22;383;48.766;9.270;2022-10-12T01:38:42;13.60;99.80
802;DHT22;383;48.766;9.270;2022-10-12T01:41:15;13.60;99.50
802;DHT22;383;48.766;9.270;2022-10-12T01:43:44;13.60;99.80
802;DHT22;383;48.766;9.270;2022-10-12T01:46:42;13.50;99.80
802;DHT22;383;48.766;9.270;2022-10-12T01:49:10;13.40;99.90
802;DHT22;383;48.766;9.270;2022-10-12T01:51:50;13.40;99.90
802;DHT22;383;48.766;9.270;2022-10-12T01:54:25;13.40;99.90
802;DHT22;383;48.766;9.270;2022-10-12T01:56:56;13.30;99.90
802;DHT22;383;48.766;9.270;2022-10-12T01:59:33;13.30;99.90
802;DHT22;383;48.766;9.270;2022-10-12T02:02:09;13.40;99.60
802;DHT22;383;48.766;9.270;2022-10-12T02:04:45;13.40;99.60
802;DHT22;383;48.766;9.270;2022-10-12T02:07:18;13.20;99.60
802;DHT22;383;48.766;9.270;2022-10-12T02:09:46;13.20;99.90
802;DHT22;383;48.766;9.270;2022-10-12T02:12:16;13.20;99.90
802;DHT22;383;48.766;9.270;2022-10-12T02:14:46;13.10;99.90
802;DHT22;383;48.766;9.270;2022-10-12T02:17:17;13.10;99.90
802;DHT22;383;48.766;9.270;2022-10-12T02:19:49;13.00;99.90
802;DHT22;383;48.766;9.270;2022-10-12T02:24:55;13.00;99.90
802;DHT22;383;48.766;9.270;2022-10-12T02:27:25;12.90;99.90
802;DHT22;383;48.766;9.270;2022-10-12T02:29:52;12.80;99.90
802;DHT22;383;48.766;9.270;2022-10-12T02:32:25;12.80;99.90
802;DHT22;383;48.766;9.270;2022-10-12T02:34:55;12.80;99.90
802;DHT22;383;48.766;9.270;2022-10-12T02:37:30;12.80;99.90
802;DHT22;383;48.766;9.270;2022-10-12T02:40:03;12.80;99.80
802;DHT22;383;48.766;9.270;2022-10-12T02:42:35;12.80;99.70
802;DHT22;383;48.766;9.270;2022-10-12T02:45:06;12.70;99.90
802;DHT22;383;48.766;9.270;2022-10-12T02:47:35;12.70;99.90
802;DHT22;383;48.766;9.270;2022-10-12T02:50:04;12.60;99.90
802;DHT22;383;48.766;9.270;2022-10-12T02:52:32;12.60;99.90
802;DHT22;383;48.766;9.270;2022-10-12T02:54:59;12.50;99.90
802;DHT22;383;48.766;9.270;2022-10-12T02:57:26;12.50;99.90
802;DHT22;383;48.766;9.270;2022-10-12T02:59:53;12.50;99.90
802;DHT22;383;48.766;9.270;2022-10-12T03:02:19;12.50;99.90
802;DHT22;383;48.766;9.270;2022-10-12T03:04:47;12.50;99.90
802;DHT22;383;48.766;9.270;2022-10-12T03:07:14;12.50;99.90
802;DHT22;383;48.766;9.270;2022-10-12T03:09:41;12.60;99.90
802;DHT22;383;48.766;9.270;2022-10-12T03:12:07;12.60;99.90
802;DHT22;383;48.766;9.270;2022-10-12T03:14:34;12.70;99.90
802;DHT22;383;48.766;9.270;2022-10-12T03:17:02;12.70;99.90
802;DHT22;383;48.766;9.270;2022-10-12T03:19:28;12.70;99.90
802;DHT22;383;48.766;9.270;2022-10-12T03:21:56;12.70;99.90
802;DHT22;383;48.766;9.270;2022-10-12T03:24:23;12.70;99.90
802;DHT22;383;48.766;9.270;2022-10-12T03:26:50;12.70;99.90
802;DHT22;383;48.766;9.270;2022-10-12T03:29:16;12.70;99.90
802;DHT22;383;48.766;9.270;2022-10-12T03:31:43;12.70;99.90
802;DHT22;383;48.766;9.270;2022-10-12T03:34:10;12.70;99.90
802;DHT22;383;48.766;9.270;2022-10-12T03:36:36;12.80;99.90
802;DHT22;383;48.766;9.270;2022-10-12T03:39:05;12.80;99.90
802;DHT22;383;48.766;9.270;2022-10-12T03:41:31;12.80;99.90
802;DHT22;383;48.766;9.270;2022-10-12T03:43:58;12.90;99.90
802;DHT22;383;48.766;9.270;2022-10-12T03:46:25;12.80;99.90
802;DHT22;383;48.766;9.270;2022-10-12T03:48:51;12.90;99.90
802;DHT22;383;48.766;9.270;2022-10-12T03:51:18;12.90;99.90
802;DHT22;383;48.766;9.270;2022-10-12T03:53:45;12.90;99.90
802;DHT22;383;48.766;9.270;2022-10-12T03:56:13;12.90;99.90
802;DHT22;383;48.766;9.270;2022-10-12T03:58:39;13.00;99.90
802;DHT22;383;48.766;9.270;2022-10-12T04:01:06;13.00;99.90
802;DHT22;383;48.766;9.270;2022-10-12T04:03:33;13.00;99.90
802;DHT22;383;48.766;9.270;2022-10-12T04:06:00;13.00;99.90
802;DHT22;383;48.766;9.270;2022-10-12T04:08:27;13.00;99.90
802;DHT22;383;48.766;9.270;2022-10-12T04:10:55;13.00;99.90
802;DHT22;383;48.766;9.270;2022-10-12T04:13:23;13.10;99.90
802;DHT22;383;48.766;9.270;2022-10-12T04:15:50;13.10;99.90
802;DHT22;383;48.766;9.270;2022-10-12T04:18:16;13.10;99.90
802;DHT22;383;48.766;9.270;2022-10-12T04:20:49;13.10;99.90
802;DHT22;383;48.766;9.270;2022-10-12T04:23:16;13.10;99.90
802;DHT22;383;48.766;9.270;2022-10-12T04:25:43;13.20;99.90
802;DHT22;383;48.766;9.270;2022-10-12T04:28:09;13.20;99.90
802;DHT22;383;48.766;9.270;2022-10-12T04:30:38;13.20;99.90
802;DHT22;383;48.766;9.270;2022-10-12T04:33:05;13.30;99.90
802;DHT22;383;48.766;9.270;2022-10-12T04:35:32;13.30;99.90
802;DHT22;383;48.766;9.270;2022-10-12T04:37:59;13.30;99.90
802;DHT22;383;48.766;9.270;2022-10-12T04:40:25;13.30;99.90
802;DHT22;383;48.766;9.270;2022-10-12T04:42:52;13.40;99.90
802;DHT22;383;48.766;9.270;2022-10-12T04:45:20;13.40;99.90
802;DHT22;383;48.766;9.270;2022-10-12T04:47:48;13.50;99.90
802;DHT22;383;48.766;9.270;2022-10-12T04:50:15;13.50;99.90
802;DHT22;383;48.766;9.270;2022-10-12T04:52:42;13.60;99.90
802;DHT22;383;48.766;9.270;2022-10-12T04:55:08;13.60;99.90
802;DHT22;383;48.766;9.270;2022-10-12T04:57:35;13.60;99.90
802;DHT22;383;48.766;9.270;2022-10-12T05:00:02;13.60;99.90
802;DHT22;383;48.766;9.270;2022-10-12T05:02:29;13.70;99.90
802;DHT22;383;48.766;9.270;2022-10-12T05:04:57;13.70;99.90
802;DHT22;383;48.766;9.270;2022-10-12T05:07:24;13.70;99.90
802;DHT22;383;48.766;9.270;2022-10-12T05:09:50;13.80;99.90
802;DHT22;383;48.766;9.270;2022-10-12T05:12:18;13.80;99.90
802;DHT22;383;48.766;9.270;2022-10-12T05:14:44;13.80;99.90
802;DHT22;383;48.766;9.270;2022-10-12T05:17:11;13.80;99.90
802;DHT22;383;48.766;9.270;2022-10-12T05:19:38;13.90;99.90
802;DHT22;383;48.766;9.270;2022-10-12T05:22:06;13.90;99.90
802;DHT22;383;48.766;9.270;2022-10-12T05:24:33;13.90;99.90
802;DHT22;383;48.766;9.270;2022-10-12T05:26:59;14.00;99.90
802;DHT22;383;48.766;9.270;2022-10-12T05:29:27;14.00;99.90
802;DHT22;383;48.766;9.270;2022-10-12T05:31:54;14.00;99.90
802;DHT22;383;48.766;9.270;2022-10-12T05:34:20;14.10;99.90
802;DHT22;383;48.766;9.270;2022-10-12T05:36:47;14.10;99.90
802;DHT22;383;48.766;9.270;2022-10-12T05:39:16;14.10;99.90
802;DHT22;383;48.766;9.270;2022-10-12T05:41:43;14.10;99.90
802;DHT22;383;48.766;9.270;2022-10-12T05:44:09;14.20;99.90
802;DHT22;383;48.766;9.270;2022-10-12T05:46:36;14.20;99.90
802;DHT22;383;48.766;9.270;2022-10-12T05:49:03;14.30;99.80
802;DHT22;383;48.766;9.270;2022-10-12T05:51:30;14.30;99.60
802;DHT22;383;48.766;9.270;2022-10-12T05:53:56;14.30;99.60
802;DHT22;383;48.766;9.270;2022-10-12T05:56:24;14.30;99.70
802;DHT22;383;48.766;9.270;2022-10-12T05:58:51;14.40;99.90
802;DHT22;383;48.766;9.270;2022-10-12T06:01:18;14.40;99.50
802;DHT22;383;48.766;9.270;2022-10-12T06:03:45;14.40;99.50
802;DHT22;383;48.766;9.270;2022-10-12T06:06:11;14.40;99.60
802;DHT22;383;48.766;9.270;2022-10-12T06:08:38;14.40;99.70
802;DHT22;383;48.766;9.270;2022-10-12T06:11:05;14.40;99.70
802;DHT22;383;48.766;9.270;2022-10-12T06:13:33;14.50;99.80
802;DHT22;383;48.766;9.270;2022-10-12T06:16:00;14.40;99.70
802;DHT22;383;48.766;9.270;2022-10-12T06:18:27;14.50;99.70
802;DHT22;383;48.766;9.270;2022-10-12T06:20:55;14.50;99.80
802;DHT22;383;48.766;9.270;2022-10-12T06:23:22;14.50;99.80
802;DHT22;383;48.766;9.270;2022-10-12T06:25:51;14.50;99.90
802;DHT22;383;48.766;9.270;2022-10-12T06:28:19;14.60;99.60
802;DHT22;383;48.766;9.270;2022-10-12T06:30:52;14.60;99.50
802;DHT22;383;48.766;9.270;2022-10-12T06:33:18;14.60;99.50
802;DHT22;383;48.766;9.270;2022-10-12T06:35:45;14.60;99.60
802;DHT22;383;48.766;9.270;2022-10-12T06:38:12;14.70;99.30
802;DHT22;383;48.766;9.270;2022-10-12T06:40:39;14.80;98.70
802;DHT22;383;48.766;9.270;2022-10-12T06:43:06;14.80;99.00
802;DHT22;383;48.766;9.270;2022-10-12T06:45:33;14.80;99.00
802;DHT22;383;48.766;9.270;2022-10-12T06:48:01;14.90;99.20
802;DHT22;383;48.766;9.270;2022-10-12T06:50:28;14.90;99.20
802;DHT22;383;48.766;9.270;2022-10-12T06:52:55;15.00;99.30
802;DHT22;383;48.766;9.270;2022-10-12T06:55:22;15.00;98.90
802;DHT22;383;48.766;9.270;2022-10-12T06:57:48;15.10;99.00
802;DHT22;383;48.766;9.270;2022-10-12T07:00:15;15.10;99.10
802;DHT22;383;48.766;9.270;2022-10-12T07:02:42;15.20;99.10
802;DHT22;383;48.766;9.270;2022-10-12T07:05:10;15.30;98.60
802;DHT22;383;48.766;9.270;2022-10-12T07:07:37;15.30;98.30
802;DHT22;383;48.766;9.270;2022-10-12T07:10:05;15.40;98.20
802;DHT22;383;48.766;9.270;2022-10-12T07:12:32;15.50;98.20
802;DHT22;383;48.766;9.270;2022-10-12T07:15:00;15.60;98.00
802;DHT22;383;48.766;9.270;2022-10-12T07:17:27;15.60;97.30
802;DHT22;383;48.766;9.270;2022-10-12T07:19:54;15.70;97.00
802;DHT22;383;48.766;9.270;2022-10-12T07:22:22;15.80;97.20
802;DHT22;383;48.766;9.270;2022-10-12T07:24:49;15.80;97.40
802;DHT22;383;48.766;9.270;2022-10-12T07:27:15;15.90;97.20
802;DHT22;383;48.766;9.270;2022-10-12T07:29:42;16.00;96.90
802;DHT22;383;48.766;9.270;2022-10-12T07:32:09;16.20;96.40
802;DHT22;383;48.766;9.270;2022-10-12T07:34:36;16.30;95.40
802;DHT22;383;48.766;9.270;2022-10-12T07:37:02;16.40;95.40
802;DHT22;383;48.766;9.270;2022-10-12T07:39:30;16.40;94.40
802;DHT22;383;48.766;9.270;2022-10-12T07:41:57;16.50;94.70
802;DHT22;383;48.766;9.270;2022-10-12T07:44:24;16.70;94.40
802;DHT22;383;48.766;9.270;2022-10-12T07:46:51;16.80;92.70
802;DHT22;383;48.766;9.270;2022-10-12T07:49:18;16.80;92.70
802;DHT22;383;48.766;9.270;2022-10-12T07:51:45;16.90;92.10
802;DHT22;383;48.766;9.270;2022-10-12T07:54:12;16.80;92.60
802;DHT22;383;48.766;9.270;2022-10-12T07:56:40;16.80;93.10
802;DHT22;383;48.766;9.270;2022-10-12T07:59:07;16.80;92.40
802;DHT22;383;48.766;9.270;2022-10-12T08:01:34;16.80;93.00
802;DHT22;383;48.766;9.270;2022-10-12T08:04:00;16.90;93.30
802;DHT22;383;48.766;9.270;2022-10-12T08:06:29;16.90;92.90
802;DHT22;383;48.766;9.270;2022-10-12T08:08:57;17.00;92.80
802;DHT22;383;48.766;9.270;2022-10-12T08:11:23;17.10;92.50
802;DHT22;383;48.766;9.270;2022-10-12T08:13:52;17.20;92.40
802;DHT22;383;48.766;9.270;2022-10-12T08:16:20;17.30;90.70
802;DHT22;383;48.766;9.270;2022-10-12T08:18:47;17.30;90.60
802;DHT22;383;48.766;9.270;2022-10-12T08:21:15;17.30;90.80
802;DHT22;383;48.766;9.270;2022-10-12T08:23:43;17.40;90.10
802;DHT22;383;48.766;9.270;2022-10-12T08:26:11;17.40;90.10
802;DHT22;383;48.766;9.270;2022-10-12T08:28:38;17.40;90.60
802;DHT22;383;48.766;9.270;2022-10-12T08:31:07;17.40;90.40
802;DHT22;383;48.766;9.270;2022-10-12T08:33:34;17.40;90.10
802;DHT22;383;48.766;9.270;2022-10-12T08:36:01;17.40;90.80
802;DHT22;383;48.766;9.270;2022-10-12T08:38:29;17.40;90.50
802;DHT22;383;48.766;9.270;2022-10-12T08:43:51;17.60;89.30
802;DHT22;383;48.766;9.270;2022-10-12T08:46:24;17.70;89.20
802;DHT22;383;48.766;9.270;2022-10-12T08:48:55;17.70;89.90
802;DHT22;383;48.766;9.270;2022-10-12T08:51:26;17.80;89.40
802;DHT22;383;48.766;9.270;2022-10-12T08:53:56;17.80;89.30
802;DHT22;383;48.766;9.270;2022-10-12T08:56:25;17.90;89.20
802;DHT22;383;48.766;9.270;2022-10-12T08:58:52;18.00;88.80
802;DHT22;383;48.766;9.270;2022-10-12T09:01:26;18.10;88.20
802;DHT22;383;48.766;9.270;2022-10-12T09:04:05;18.10;88.50
802;DHT22;383;48.766;9.270;2022-10-12T09:06:37;18.20;88.10
802;DHT22;383;48.766;9.270;2022-10-12T09:09:12;18.20;86.80
802;DHT22;383;48.766;9.270;2022-10-12T09:11:51;18.20;87.30
802;DHT22;383;48.766;9.270;2022-10-12T09:14:21;18.40;86.80
802;DHT22;383;48.766;9.270;2022-10-12T09:16:53;18.40;87.20
802;DHT22;383;48.766;9.270;2022-10-12T09:19:22;18.50;86.90
802;DHT22;383;48.766;9.270;2022-10-12T09:21:50;18.60;86.00
802;DHT22;383;48.766;9.270;2022-10-12T09:24:19;18.70;85.30
802;DHT22;383;48.766;9.270;2022-10-12T09:26:50;18.70;86.10
802;DHT22;383;48.766;9.270;2022-10-12T09:29:23;18.80;85.20
802;DHT22;383;48.766;9.270;2022-10-12T09:32:10;18.80;84.70
802;DHT22;383;48.766;9.270;2022-10-12T09:34:38;19.00;84.30
802;DHT22;383;48.766;9.270;2022-10-12T09:37:07;19.00;84.40
802;DHT22;383;48.766;9.270;2022-10-12T09:39:36;19.00;83.00
802;DHT22;383;48.766;9.270;2022-10-12T09:42:05;19.00;83.10
802;DHT22;383;48.766;9.270;2022-10-12T09:44:35;19.10;81.90
802;DHT22;383;48.766;9.270;2022-10-12T09:47:22;19.10;82.60
802;DHT22;383;48.766;9.270;2022-10-12T09:49:52;19.20;80.00
802;DHT22;383;48.766;9.270;2022-10-12T09:52:25;19.30;80.70
802;DHT22;383;48.766;9.270;2022-10-12T09:54:54;19.20;82.30
802;DHT22;383;48.766;9.270;2022-10-12T09:57:25;19.20;82.20
802;DHT22;383;48.766;9.270;2022-10-12T09:59:52;19.30;81.50
802;DHT22;383;48.766;9.270;2022-10-12T10:02:22;19.40;80.80
802;DHT22;383;48.766;9.270;2022-10-12T10:04:50;19.30;81.50
802;DHT22;383;48.766;9.270;2022-10-12T10:07:27;19.20;81.50
802;DHT22;383;48.766;9.270;2022-10-12T10:10:15;19.20;81.80
802;DHT22;383;48.766;9.270;2022-10-12T10:12:50;19.20;81.10
802;DHT22;383;48.766;9.270;2022-10-12T10:15:20;19.10;81.90
802;DHT22;383;48.766;9.270;2022-10-12T10:17:50;19.10;82.40
802;DHT22;383;48.766;9.270;2022-10-12T10:20:30;19.10;83.40
802;DHT22;383;48.766;9.270;2022-10-12T10:22:58;19.00;83.40
802;DHT22;383;48.766;9.270;2022-10-12T10:25:25;19.00;83.40
802;DHT22;383;48.766;9.270;2022-10-12T10:30:56;19.20;81.80
802;DHT22;383;48.766;9.270;2022-10-12T10:33:25;19.20;82.30
802;DHT22;383;48.766;9.270;2022-10-12T10:35:56;19.20;81.90
802;DHT22;383;48.766;9.270;2022-10-12T10:38:23;19.40;80.60
802;DHT22;383;48.766;9.270;2022-10-12T10:40:51;19.30;81.20
802;DHT22;383;48.766;9.270;2022-10-12T10:43:23;19.30;81.40
802;DHT22;383;48.766;9.270;2022-10-12T10:45:53;19.40;79.70
802;DHT22;383;48.766;9.270;2022-10-12T10:48:23;19.50;80.60
802;DHT22;383;48.766;9.270;2022-10-12T10:50:55;19.50;80.70
802;DHT22;383;48.766;9.270;2022-10-12T10:53:27;19.50;81.00
802;DHT22;383;48.766;9.270;2022-10-12T10:56:00;19.60;81.40
802;DHT22;383;48.766;9.270;2022-10-12T10:58:33;19.60;79.90
802;DHT22;383;48.766;9.270;2022-10-12T11:01:07;19.70;78.60
802;DHT22;383;48.766;9.270;2022-10-12T11:03:42;19.50;79.30
802;DHT22;383;48.766;9.270;2022-10-12T11:06:29;19.60;79.10
802;DHT22;383;48.766;9.270;2022-10-12T11:09:01;19.70;78.60
802;DHT22;383;48.766;9.270;2022-10-12T11:11:31;19.80;78.50
802;DHT22;383;48.766;9.270;2022-10-12T11:14:03;19.90;77.90
802;DHT22;383;48.766;9.270;2022-10-12T11:16:33;20.00;77.00
802;DHT22;383;48.766;9.270;2022-10-12T11:19:04;20.10;77.90
802;DHT22;383;48.766;9.270;2022-10-12T11:21:37;20.20;76.60
802;DHT22;383;48.766;9.270;2022-10-12T11:24:12;20.30;75.20
802;DHT22;383;48.766;9.270;2022-10-12T11:26:45;20.30;75.80
802;DHT22;383;48.766;9.270;2022-10-12T11:29:14;20.30;76.60
802;DHT22;383;48.766;9.270;2022-10-12T11:31:52;20.30;77.50
802;DHT22;383;48.766;9.270;2022-10-12T11:34:22;20.30;77.30
802;DHT22;383;48.766;9.270;2022-10-12T11:36:53;20.30;77.30
802;DHT22;383;48.766;9.270;2022-10-12T11:39:27;20.40;77.30
802;DHT22;383;48.766;9.270;2022-10-12T11:41:56;20.40;77.80
802;DHT22;383;48.766;9.270;2022-10-12T11:44:29;20.40;77.30
802;DHT22;383;48.766;9.270;2022-10-12T11:47:03;20.40;76.00
802;DHT22;383;48.766;9.270;2022-10-12T11:49:34;20.40;75.40
802;DHT22;383;48.766;9.270;2022-10-12T11:52:10;20.40;76.30
802;DHT22;383;48.766;9.270;2022-10-12T11:54:42;20.50;75.00
802;DHT22;383;48.766;9.270;2022-10-12T11:57:13;20.50;75.40
802;DHT22;383;48.766;9.270;2022-10-12T11:59:44;20.40;75.70
802;DHT22;383;48.766;9.270;2022-10-12T12:02:17;20.30;75.60
802;DHT22;383;48.766;9.270;2022-10-12T12:04:47;20.40;75.20
802;DHT22;383;48.766;9.270;2022-10-12T12:07:42;20.50;73.80
802;DHT22;383;48.766;9.270;2022-10-12T12:13:25;20.50;74.40
802;DHT22;383;48.766;9.270;2022-10-12T12:22:11;20.70;74.50
802;DHT22;383;48.766;9.270;2022-10-12T12:24:40;20.80;72.60
802;DHT22;383;48.766;9.270;2022-10-12T12:27:21;20.60;72.50
802;DHT22;383;48.766;9.270;2022-10-12T12:29:52;20.60;73.40
802;DHT22;383;48.766;9.270;2022-10-12T12:32:19;20.70;74.40
802;DHT22;383;48.766;9.270;2022-10-12T12:34:53;20.90;74.00
802;DHT22;383;48.766;9.270;2022-10-12T12:37:21;21.00;74.20
802;DHT22;383;48.766;9.270;2022-10-12T12:39:56;21.00;72.90
802;DHT22;383;48.766;9.270;2022-10-12T12:42:26;21.00;73.60
802;DHT22;383;48.766;9.270;2022-10-12T12:44:56;21.10;72.80
802;DHT22;383;48.766;9.270;2022-10-12T12:47:36;21.20;72.40
802;DHT22;383;48.766;9.270;2022-10-12T12:50:25;21.10;73.30
802;DHT22;383;48.766;9.270;2022-10-12T12:53:03;21.00;72.80
802;DHT22;383;48.766;9.270;2022-10-12T12:55:58;20.80;73.40
802;DHT22;383;48.766;9.270;2022-10-12T12:58:47;20.80;71.50
802;DHT22;383;48.766;9.270;2022-10-12T13:01:36;20.70;73.20
802;DHT22;383;48.766;9.270;2022-10-12T13:04:32;20.70;74.20
802;DHT22;383;48.766;9.270;2022-10-12T13:10:25;20.70;72.60
802;DHT22;383;48.766;9.270;2022-10-12T13:13:14;20.70;73.30
802;DHT22;383;48.766;9.270;2022-10-12T13:16:04;20.60;73.40
802;DHT22;383;48.766;9.270;2022-10-12T13:18:47;20.60;73.70
802;DHT22;383;48.766;9.270;2022-10-12T13:21:17;20.60;75.30
802;DHT22;383;48.766;9.270;2022-10-12T13:23:47;20.60;74.20
802;DHT22;383;48.766;9.270;2022-10-12T13:26:17;20.60;74.20
802;DHT22;383;48.766;9.270;2022-10-12T13:28:48;20.60;75.00
802;DHT22;383;48.766;9.270;2022-10-12T13:31:19;20.60;76.10
802;DHT22;383;48.766;9.270;2022-10-12T13:33:56;20.50;74.90
802;DHT22;383;48.766;9.270;2022-10-12T13:36:26;20.50;74.20
802;DHT22;383;48.766;9.270;2022-10-12T13:38:57;20.50;74.00
802;DHT22;383;48.766;9.270;2022-10-12T13:41:26;20.40;74.10
802;DHT22;383;48.766;9.270;2022-10-12T13:43:57;20.40;73.30
802;DHT22;383;48.766;9.270;2022-10-12T13:46:38;20.20;74.20
802;DHT22;383;48.766;9.270;2022-10-12T13:49:14;20.10;76.00
802;DHT22;383;48.766;9.270;2022-10-12T13:51:44;20.00;74.50
802;DHT22;383;48.766;9.270;2022-10-12T13:54:16;19.90;76.30
802;DHT22;383;48.766;9.270;2022-10-12T13:56:44;19.70;75.60
802;DHT22;383;48.766;9.270;2022-10-12T13:59:16;19.50;77.30
802;DHT22;383;48.766;9.270;2022-10-12T14:01:48;19.30;78.20
802;DHT22;383;48.766;9.270;2022-10-12T14:04:15;19.20;79.30
802;DHT22;383;48.766;9.270;2022-10-12T14:06:46;19.00;80.00
802;DHT22;383;48.766;9.270;2022-10-12T14:09:16;19.00;79.90
802;DHT22;383;48.766;9.270;2022-10-12T14:11:44;18.90;80.40
802;DHT22;383;48.766;9.270;2022-10-12T14:14:18;18.90;80.30
802;DHT22;383;48.766;9.270;2022-10-12T14:16:45;18.90;79.00
802;DHT22;383;48.766;9.270;2022-10-12T14:19:20;18.80;79.90
802;DHT22;383;48.766;9.270;2022-10-12T14:22:00;18.80;79.10
802;DHT22;383;48.766;9.270;2022-10-12T14:24:29;18.70;79.70
802;DHT22;383;48.766;9.270;2022-10-12T14:26:57;18.70;80.20
802;DHT22;383;48.766;9.270;2022-10-12T14:29:31;18.70;80.20
802;DHT22;383;48.766;9.270;2022-10-12T14:32:00;18.70;80.70
802;DHT22;383;48.766;9.270;2022-10-12T14:34:39;18.70;80.60
802;DHT22;383;48.766;9.270;2022-10-12T14:37:20;18.70;80.20
802;DHT22;383;48.766;9.270;2022-10-12T14:39:49;18.60;80.20
802;DHT22;383;48.766;9.270;2022-10-12T14:42:21;18.70;80.40
802;DHT22;383;48.766;9.270;2022-10-12T14:44:49;18.70;80.80
802;DHT22;383;48.766;9.270;2022-10-12T14:47:19;18.60;81.50
802;DHT22;383;48.766;9.270;2022-10-12T14:49:48;18.60;80.40
802;DHT22;383;48.766;9.270;2022-10-12T14:52:18;18.50;81.60
802;DHT22;383;48.766;9.270;2022-10-12T14:54:48;18.50;82.20
802;DHT22;383;48.766;9.270;2022-10-12T14:57:17;18.50;81.60
802;DHT22;383;48.766;9.270;2022-10-12T14:59:43;18.50;82.00
802;DHT22;383;48.766;9.270;2022-10-12T15:02:14;18.50;82.00
802;DHT22;383;48.766;9.270;2022-10-12T15:04:42;18.50;80.40
802;DHT22;383;48.766;9.270;2022-10-12T15:07:18;18.60;80.40
802;DHT22;383;48.766;9.270;2022-10-12T15:09:45;18.50;80.70
802;DHT22;383;48.766;9.270;2022-10-12T15:12:14;18.50;81.60
802;DHT22;383;48.766;9.270;2022-10-12T15:14:41;18.50;82.20
802;DHT22;383;48.766;9.270;2022-10-12T15:17:10;18.50;80.80
802;DHT22;383;48.766;9.270;2022-10-12T15:19:39;18.50;81.00
802;DHT22;383;48.766;9.270;2022-10-12T15:22:06;18.50;81.10
802;DHT22;383;48.766;9.270;2022-10-12T15:24:33;18.50;81.80
802;DHT22;383;48.766;9.270;2022-10-12T15:27:00;18.50;81.60
802;DHT22;383;48.766;9.270;2022-10-12T15:29:27;18.40;82.00
802;DHT22;383;48.766;9.270;2022-10-12T15:31:54;18.40;81.40
802;DHT22;383;48.766;9.270;2022-10-12T15:34:20;18.50;80.40
802;DHT22;383;48.766;9.270;2022-10-12T15:36:48;18.40;81.10
802;DHT22;383;48.766;9.270;2022-10-12T15:39:15;18.40;82.00
802;DHT22;383;48.766;9.270;2022-10-12T15:41:42;18.30;82.20
802;DHT22;383;48.766;9.270;2022-10-12T15:44:10;18.20;83.10
802;DHT22;383;48.766;9.270;2022-10-12T15:46:37;18.10;84.10
802;DHT22;383;48.766;9.270;2022-10-12T15:49:04;18.10;84.80
802;DHT22;383;48.766;9.270;2022-10-12T15:51:32;18.00;85.50
802;DHT22;383;48.766;9.270;2022-10-12T15:54:03;18.00;85.30
802;DHT22;383;48.766;9.270;2022-10-12T15:56:29;17.90;85.60
802;DHT22;383;48.766;9.270;2022-10-12T15:58:56;17.80;85.70
802;DHT22;383;48.766;9.270;2022-10-12T16:01:23;17.70;86.30
802;DHT22;383;48.766;9.270;2022-10-12T16:03:50;17.70;86.80
802;DHT22;383;48.766;9.270;2022-10-12T16:06:17;17.60;87.10
802;DHT22;383;48.766;9.270;2022-10-12T16:08:43;17.60;87.40
802;DHT22;383;48.766;9.270;2022-10-12T16:11:13;17.50;88.00
802;DHT22;383;48.766;9.270;2022-10-12T16:13:40;17.40;88.40
802;DHT22;383;48.766;9.270;2022-10-12T16:16:08;17.30;88.90
802;DHT22;383;48.766;9.270;2022-10-12T16:18:35;17.30;89.20
802;DHT22;383;48.766;9.270;2022-10-12T16:21:02;17.20;89.70
802;DHT22;383;48.766;9.270;2022-10-12T16:23:32;17.10;90.00
802;DHT22;383;48.766;9.270;2022-10-12T16:26:01;17.10;90.30
802;DHT22;383;48.766;9.270;2022-10-12T16:28:30;17.00;90.50
802;DHT22;383;48.766;9.270;2022-10-12T16:30:57;16.80;90.80
802;DHT22;383;48.766;9.270;2022-10-12T16:33:24;16.70;91.10
802;DHT22;383;48.766;9.270;2022-10-12T16:35:51;16.60;91.70
802;DHT22;383;48.766;9.270;2022-10-12T16:38:17;16.50;92.00
802;DHT22;383;48.766;9.270;2022-10-12T16:40:45;16.40;92.10
802;DHT22;383;48.766;9.270;2022-10-12T16:43:13;16.30;92.50
802;DHT22;383;48.766;9.270;2022-10-12T16:45:41;16.30;92.70
802;DHT22;383;48.766;9.270;2022-10-12T16:48:08;16.20;92.90
802;DHT22;383;48.766;9.270;2022-10-12T16:50:37;16.10;93.20
802;DHT22;383;48.766;9.270;2022-10-12T16:53:05;16.00;93.60
802;DHT22;383;48.766;9.270;2022-10-12T16:55:32;15.90;93.80
802;DHT22;383;48.766;9.270;2022-10-12T16:57:58;15.90;93.80
802;DHT22;383;48.766;9.270;2022-10-12T17:00:25;15.80;94.00
802;DHT22;383;48.766;9.270;2022-10-12T17:02:53;15.70;94.40
802;DHT22;383;48.766;9.270;2022-10-12T17:05:20;15.60;94.70
802;DHT22;383;48.766;9.270;2022-10-12T17:07:47;15.40;95.00
802;DHT22;383;48.766;9.270;2022-10-12T17:10:13;15.40;95.40
802;DHT22;383;48.766;9.270;2022-10-12T17:12:40;15.30;95.50
802;DHT22;383;48.766;9.270;2022-10-12T17:15:08;15.20;95.70